Time;durP1;ratioP1;P1;durP2;ratioP2;P2;SDS_P1;SDS_P2;PMS_P1;PMS_P2;Temp;Humidity;BMP_temperature;BMP_pressure;BME280_temperature;BME280_humidity;BME280_pressure;Samples;Min_cycle;Max_cycle;Signal;HPM_P1;HPM_P2
2022/07/23 00:01:34;;;;;;;;;;;;;;;21.84;58.93;100747.34;5027672;28;6944;-75
2022/07/23 00:04:00;;;;;;;;;;;;;;;21.80;59.11;100746.44;4986890;28;6760;-76
2022/07/23 00:06:25;;;;;;;;;;;;;;;21.78;59.08;100737.75;4984015;28;7292;-76
2022/07/23 00:08:51;;;;;;;;;;;;;;;21.76;59.02;100737.72;4991681;28;7162;-76
2022/07/23 00:11:17;;;;;;;;;;;;;;;21.75;59.27;100740.31;5030718;28;7220;-76
2022/07/23 00:13:44;;;;;;;;;;;;;;;21.72;59.44;100735.94;4982818;28;6830;-76
2022/07/23 00:16:09;;;;;;;;;;;;;;;21.68;59.59;100735.91;4993583;28;6985;-76
2022/07/23 00:18:35;;;;;;;;;;;;;;;21.62;59.31;100737.59;4983936;28;7208;-76
2022/07/23 00:21:01;;;;;;;;;;;;;;;21.58;59.49;100735.81;4981506;28;7874;-76
2022/07/23 00:23:28;;;;;;;;;;;;;;;21.51;59.60;100734.88;4988347;28;7190;-75
2022/07/23 00:25:55;;;;;;;;;;;;;;;21.46;59.65;100734.00;5008714;28;6987;-76
2022/07/23 00:28:20;;;;;;;;;;;;;;;21.38;59.82;100743.47;4997948;28;6812;-75
2022/07/23 00:30:46;;;;;;;;;;;;;;;21.32;59.41;100746.03;4979127;28;6965;-75
2022/07/23 00:33:12;;;;;;;;;;;;;;;21.25;59.70;100750.31;5000266;28;6875;-76
2022/07/23 00:35:40;;;;;;;;;;;;;;;21.18;60.25;100752.00;4971909;28;6792;-75
2022/07/23 00:38:09;;;;;;;;;;;;;;;21.11;60.34;100747.56;5002561;28;6828;-76
2022/07/23 00:40:36;;;;;;;;;;;;;;;21.06;60.20;100746.66;5000201;28;7235;-76
2022/07/23 00:43:03;;;;;;;;;;;;;;;21.03;60.33;100751.81;4978449;28;7393;-76
2022/07/23 00:45:30;;;;;;;;;;;;;;;20.98;60.51;100763.94;4991472;28;7184;-76
2022/07/23 00:47:55;;;;;;;;;;;;;;;20.92;60.46;100760.41;5000584;28;6990;-75
2022/07/23 00:50:22;;;;;;;;;;;;;;;20.87;60.53;100759.50;5009959;28;6791;-76
2022/07/23 00:52:48;;;;;;;;;;;;;;;20.83;60.78;100752.47;5017767;28;6999;-76
2022/07/23 00:55:14;;;;;;;;;;;;;;;20.79;60.74;100763.72;4999915;28;6792;-76
2022/07/23 00:57:42;;;;;;;;;;;;;;;20.75;61.13;100764.50;5002610;28;7044;-76
2022/07/23 01:00:13;;;;;;;;;;;;;;;20.73;61.26;100758.41;4949569;28;8051;-76
2022/07/23 01:02:39;;;;;;;;;;;;;;;20.71;61.71;100762.75;5015682;28;11378;-76
2022/07/23 01:05:05;;;;;;;;;;;;;;;20.68;61.10;100760.97;4978809;28;7164;-75
2022/07/23 01:07:31;;;;;;;;;;;;;;;20.66;60.97;100760.06;5014916;28;7003;-76
2022/07/23 01:09:57;;;;;;;;;;;;;;;20.63;61.17;100757.44;5014864;28;6951;-75
2022/07/23 01:12:23;;;;;;;;;;;;;;;20.60;61.43;100753.06;5015334;28;7093;-75
2022/07/23 01:14:57;;;;;;;;;;;;;;;20.56;61.38;100746.06;4995556;28;7300;-76
2022/07/23 01:17:23;;;;;;;;;;;;;;;20.56;61.38;100750.41;5010896;28;7957;-76
2022/07/23 01:19:49;;;;;;;;;;;;;;;20.53;61.67;100751.25;5002253;28;7169;-76
2022/07/23 01:22:17;;;;;;;;;;;;;;;20.51;61.75;100745.16;5014737;28;7692;-76
2022/07/23 01:24:43;;;;;;;;;;;;;;;20.49;61.35;100754.66;5014518;28;6994;-75
2022/07/23 01:27:08;;;;;;;;;;;;;;;20.44;61.71;100749.41;4979875;28;7193;-76
2022/07/23 01:29:34;;;;;;;;;;;;;;;20.40;61.31;100743.28;4979389;28;8869;-76
2022/07/23 01:32:00;;;;;;;;;;;;;;;20.37;61.32;100738.00;5011896;28;6968;-76
2022/07/23 01:34:25;;;;;;;;;;;;;;;20.36;61.34;100732.81;5010366;28;10224;-75
2022/07/23 01:36:51;;;;;;;;;;;;;;;20.31;61.32;100730.16;4993276;28;6966;-76
2022/07/23 01:39:17;;;;;;;;;;;;;;;20.30;61.47;100732.72;5012137;28;7172;-76
2022/07/23 01:41:42;;;;;;;;;;;;;;;20.27;61.11;100728.34;4983169;28;6967;-76
2022/07/23 01:44:08;;;;;;;;;;;;;;;20.25;61.26;100724.84;5016247;28;6771;-76
2022/07/23 01:46:33;;;;;;;;;;;;;;;20.23;61.23;100726.56;4992521;28;8413;-75
2022/07/23 01:48:59;;;;;;;;;;;;;;;20.20;61.33;100726.53;4994240;28;6963;-76
2022/07/23 01:51:25;;;;;;;;;;;;;;;20.17;61.19;100721.25;4980255;28;7168;-76
2022/07/23 01:53:50;;;;;;;;;;;;;;;20.14;61.57;100718.63;5012800;28;6780;-76
2022/07/23 01:56:16;;;;;;;;;;;;;;;20.10;61.28;100713.41;5011597;28;7275;-76
2022/07/23 01:58:41;;;;;;;;;;;;;;;20.07;61.23;100721.13;4992818;28;7394;-76
2022/07/23 02:01:07;;;;;;;;;;;;;;;20.04;61.12;100717.63;5012322;28;6779;-76
2022/07/23 02:03:33;;;;;;;;;;;;;;;20.02;61.41;100711.53;4993271;28;6967;-76
2022/07/23 02:05:58;;;;;;;;;;;;;;;20.01;61.44;100717.59;4975047;28;8473;-75
2022/07/23 02:08:24;;;;;;;;;;;;;;;19.98;61.97;100721.91;4972866;28;6966;-76
2022/07/23 02:10:51;;;;;;;;;;;;;;;19.97;61.48;100719.25;4990261;28;7118;-76
2022/07/23 02:13:17;;;;;;;;;;;;;;;19.96;61.99;100725.31;5010816;28;7306;-76
2022/07/23 02:15:43;;;;;;;;;;;;;;;19.93;61.73;100723.53;5001675;28;7004;-76
2022/07/23 02:18:08;;;;;;;;;;;;;;;19.92;61.77;100723.50;4992994;28;6949;-75
2022/07/23 02:20:34;;;;;;;;;;;;;;;19.89;61.70;100721.72;4997449;28;6772;-76
2022/07/23 02:23:00;;;;;;;;;;;;;;;19.86;61.63;100716.50;5021136;28;7086;-76
2022/07/23 02:25:25;;;;;;;;;;;;;;;19.82;61.39;100720.78;4981847;28;6944;-76
2022/07/23 02:27:51;;;;;;;;;;;;;;;19.78;61.70;100712.91;4998232;28;7209;-76
2022/07/23 02:30:16;;;;;;;;;;;;;;;19.74;61.51;100719.78;5012800;28;7455;-76
2022/07/23 02:32:42;;;;;;;;;;;;;;;19.70;61.43;100721.44;5009646;28;6927;-76
2022/07/23 02:35:08;;;;;;;;;;;;;;;19.67;61.17;100728.31;4982804;28;7685;-76
2022/07/23 02:37:34;;;;;;;;;;;;;;;19.64;60.91;100725.69;4996674;28;8369;-76
2022/07/23 02:39:59;;;;;;;;;;;;;;;19.61;61.40;100723.91;4995196;28;6978;-76
2022/07/23 02:42:25;;;;;;;;;;;;;;;19.58;61.82;100726.47;5012380;28;7236;-76
2022/07/23 02:44:51;;;;;;;;;;;;;;;19.55;61.36;100729.88;5010604;28;7451;-76
2022/07/23 02:47:17;;;;;;;;;;;;;;;19.54;61.77;100727.25;4975058;28;7164;-76
2022/07/23 02:49:43;;;;;;;;;;;;;;;19.52;61.77;100726.34;5001482;28;7098;-76
2022/07/23 02:52:10;;;;;;;;;;;;;;;19.52;62.18;100721.16;5012925;28;6780;-76
2022/07/23 02:54:36;;;;;;;;;;;;;;;19.51;62.52;100722.00;5005105;28;7172;-76
2022/07/23 02:57:03;;;;;;;;;;;;;;;19.52;62.32;100722.03;5019528;28;6990;-76
2022/07/23 02:59:29;;;;;;;;;;;;;;;19.53;62.35;100729.00;4985741;28;7345;-78
2022/07/23 03:01:55;;;;;;;;;;;;;;;19.53;62.37;100722.91;4981419;28;7169;-78
2022/07/23 03:04:20;;;;;;;;;;;;;;;19.53;62.18;100725.50;5013250;28;7062;-78
2022/07/23 03:06:46;;;;;;;;;;;;;;;19.54;62.14;100724.66;4996618;28;7203;-78
2022/07/23 03:09:11;;;;;;;;;;;;;;;19.54;62.52;100729.84;5015227;28;6995;-78
2022/07/23 03:11:37;;;;;;;;;;;;;;;19.52;62.09;100735.03;4985655;28;7011;-78
2022/07/23 03:14:03;;;;;;;;;;;;;;;19.51;62.60;100733.31;5018718;28;6783;-79
2022/07/23 03:16:28;;;;;;;;;;;;;;;19.50;62.06;100728.91;4987711;28;7199;-78
2022/07/23 03:18:54;;;;;;;;;;;;;;;19.49;62.46;100729.78;5013594;28;7125;-78
2022/07/23 03:21:19;;;;;;;;;;;;;;;19.47;62.21;100728.03;4987495;28;6871;-78
2022/07/23 03:23:45;;;;;;;;;;;;;;;19.46;62.10;100727.13;4978699;28;8084;-78
2022/07/23 03:26:11;;;;;;;;;;;;;;;19.42;62.54;100726.19;5016862;28;6935;-78
2022/07/23 03:28:36;;;;;;;;;;;;;;;19.41;62.09;100732.25;4998992;28;8068;-79
2022/07/23 03:31:02;;;;;;;;;;;;;;;19.39;61.63;100736.56;4982051;28;6953;-78
2022/07/23 03:33:27;;;;;;;;;;;;;;;19.37;62.21;100737.38;5033113;28;8350;-79
2022/07/23 03:35:53;;;;;;;;;;;;;;;19.35;62.38;100736.47;4989293;28;7035;-79
2022/07/23 03:38:19;;;;;;;;;;;;;;;19.34;62.04;100734.72;5019637;28;7175;-78
2022/07/23 03:40:45;;;;;;;;;;;;;;;19.31;61.93;100738.16;4985791;28;6787;-79
2022/07/23 03:43:10;;;;;;;;;;;;;;;19.27;61.96;100737.22;4988870;28;6780;-79
2022/07/23 03:45:36;;;;;;;;;;;;;;;19.26;61.96;100739.78;4981418;28;7374;-79
2022/07/23 03:48:01;;;;;;;;;;;;;;;19.23;62.04;100739.72;4985437;28;6784;-79
2022/07/23 03:50:27;;;;;;;;;;;;;;;19.16;61.68;100738.75;5016559;28;7195;-79
2022/07/23 03:52:53;;;;;;;;;;;;;;;19.12;61.66;100731.72;5010659;28;8514;-79
2022/07/23 03:55:19;;;;;;;;;;;;;;;19.10;62.33;100730.84;4979435;28;6800;-79
2022/07/23 03:57:45;;;;;;;;;;;;;;;19.11;62.06;100730.00;4985695;28;7899;-79
2022/07/23 04:00:12;;;;;;;;;;;;;;;19.12;62.84;100732.63;5013301;28;6768;-78
2022/07/23 04:02:39;;;;;;;;;;;;;;;19.11;62.44;100733.47;4987223;28;11327;-79
2022/07/23 04:05:06;;;;;;;;;;;;;;;19.11;62.53;100730.00;5017727;28;6788;-78
2022/07/23 04:07:32;;;;;;;;;;;;;;;19.13;62.75;100736.97;4992967;28;7134;-79
2022/07/23 04:09:57;;;;;;;;;;;;;;;19.15;62.96;100743.06;4981409;28;7275;-78
2022/07/23 04:12:24;;;;;;;;;;;;;;;19.18;62.75;100747.44;4997078;28;7180;-78
2022/07/23 04:14:49;;;;;;;;;;;;;;;19.23;62.98;100750.13;4994015;28;7121;-78
2022/07/23 04:17:15;;;;;;;;;;;;;;;19.24;62.91;100751.88;4989427;28;7114;-79
2022/07/23 04:19:43;;;;;;;;;;;;;;;19.24;63.11;100752.75;5028430;28;7020;-78
2022/07/23 04:22:12;;;;;;;;;;;;;;;19.25;62.40;100759.69;5026325;28;6796;-79
2022/07/23 04:24:38;;;;;;;;;;;;;;;19.27;63.25;100759.75;4993759;28;6873;-78
2022/07/23 04:27:05;;;;;;;;;;;;;;;19.29;62.82;100761.50;4994519;28;7222;-78
2022/07/23 04:29:30;;;;;;;;;;;;;;;19.33;63.02;100766.78;4993998;28;6926;-79
2022/07/23 04:31:56;;;;;;;;;;;;;;;19.36;63.38;100765.09;4991996;28;6768;-79
2022/07/23 04:34:22;;;;;;;;;;;;;;;19.39;63.53;100762.56;5013345;28;6950;-78
2022/07/23 04:36:48;;;;;;;;;;;;;;;19.44;63.52;100767.81;4996504;28;6844;-78
2022/07/23 04:39:14;;;;;;;;;;;;;;;19.49;63.62;100773.97;4999347;28;7274;-79
2022/07/23 04:41:40;;;;;;;;;;;;;;;19.59;64.10;100779.31;4993971;28;6764;-79
2022/07/23 04:44:05;;;;;;;;;;;;;;;19.70;64.19;100778.66;4993312;28;7196;-76
2022/07/23 04:46:31;;;;;;;;;;;;;;;19.88;64.83;100789.31;5044144;28;10170;-76
2022/07/23 04:48:57;;;;;;;;;;;;;;;20.06;64.93;100786.19;5025148;28;6768;-76
2022/07/23 04:51:24;;;;;;;;;;;;;;;20.25;65.17;100793.41;4997214;28;6784;-77
2022/07/23 04:53:50;;;;;;;;;;;;;;;20.44;65.21;100784.97;5009957;28;8159;-77
2022/07/23 04:56:15;;;;;;;;;;;;;;;20.62;65.10;100787.81;5025500;28;6796;-77
2022/07/23 04:58:41;;;;;;;;;;;;;;;20.78;64.65;100793.22;5028971;28;7251;-77
2022/07/23 05:01:07;;;;;;;;;;;;;;;20.92;64.86;100793.41;4996996;28;6936;-77
2022/07/23 05:03:33;;;;;;;;;;;;;;;21.07;65.04;100788.34;4994406;28;7089;-77
2022/07/23 05:05:58;;;;;;;;;;;;;;;21.28;65.23;100785.97;5009421;28;6955;-77
2022/07/23 05:08:24;;;;;;;;;;;;;;;21.47;64.85;100794.81;4994504;28;6923;-77
2022/07/23 05:10:50;;;;;;;;;;;;;;;21.68;64.87;100796.78;5025379;28;7247;-77
2022/07/23 05:13:16;;;;;;;;;;;;;;;21.88;64.34;100789.13;5010294;28;7129;-77
2022/07/23 05:15:42;;;;;;;;;;;;;;;22.02;64.01;100794.44;5010392;28;6966;-76
2022/07/23 05:18:08;;;;;;;;;;;;;;;22.12;63.91;100784.94;4997072;28;6783;-76
2022/07/23 05:20:34;;;;;;;;;;;;;;;22.24;63.53;100784.13;4997640;28;6796;-77
2022/07/23 05:22:59;;;;;;;;;;;;;;;22.38;62.96;100792.03;4993225;28;6795;-76
2022/07/23 05:25:25;;;;;;;;;;;;;;;22.53;63.81;100790.38;4997326;28;7153;-77
2022/07/23 05:27:51;;;;;;;;;;;;;;;22.73;63.81;100799.19;4999228;28;7306;-77
2022/07/23 05:30:16;;;;;;;;;;;;;;;22.94;64.24;100797.53;4995776;28;7199;-77
2022/07/23 05:32:42;;;;;;;;;;;;;;;23.20;64.37;100804.56;5012004;28;6959;-77
2022/07/23 05:35:08;;;;;;;;;;;;;;;23.41;63.04;100798.53;4993817;28;7127;-77
2022/07/23 05:37:34;;;;;;;;;;;;;;;23.56;62.51;100799.38;4994622;28;6839;-77
2022/07/23 05:40:07;;;;;;;;;;;;;;;23.67;61.84;100802.03;4994906;28;6830;-76
2022/07/23 05:42:40;;;;;;;;;;;;;;;23.75;61.48;100802.91;5022410;28;6811;-76
2022/07/23 05:45:07;;;;;;;;;;;;;;;23.88;60.77;100813.34;4992793;28;6800;-77
2022/07/23 05:47:44;;;;;;;;;;;;;;;23.97;60.80;100803.75;4994380;28;6876;-77
2022/07/23 05:50:11;;;;;;;;;;;;;;;24.11;61.09;100805.50;4998210;28;6800;-76
2022/07/23 05:52:38;;;;;;;;;;;;;;;24.26;60.32;100810.72;4996472;28;6804;-77
2022/07/23 05:55:05;;;;;;;;;;;;;;;24.35;59.87;100814.19;4996042;28;7432;-77
2022/07/23 05:57:31;;;;;;;;;;;;;;;24.38;58.54;100817.66;5016589;28;7006;-78
2022/07/23 05:59:57;;;;;;;;;;;;;;;24.32;57.21;100819.41;5022454;28;7194;-77
2022/07/23 06:02:23;;;;;;;;;;;;;;;24.16;56.27;100822.09;4991011;28;7007;-77
2022/07/23 06:04:48;;;;;;;;;;;;;;;23.98;56.21;100823.81;4994416;28;6844;-77
2022/07/23 06:07:14;;;;;;;;;;;;;;;23.81;56.35;100825.56;4995625;28;7184;-77
2022/07/23 06:09:40;;;;;;;;;;;;;;;23.68;56.73;100828.19;4979798;28;6954;-77
2022/07/23 06:12:06;;;;;;;;;;;;;;;23.61;57.29;100820.31;4997003;28;7271;-77
2022/07/23 06:14:31;;;;;;;;;;;;;;;23.58;57.11;100821.22;4995184;28;8346;-77
2022/07/23 06:16:57;;;;;;;;;;;;;;;23.53;56.83;100820.31;5023846;28;6787;-77
2022/07/23 06:19:23;;;;;;;;;;;;;;;23.42;56.81;100815.97;4996007;28;6772;-77
2022/07/23 06:21:48;;;;;;;;;;;;;;;23.36;56.99;100815.94;5026314;28;6772;-77
2022/07/23 06:24:14;;;;;;;;;;;;;;;23.32;56.52;100821.16;4992146;28;7117;-77
2022/07/23 06:26:40;;;;;;;;;;;;;;;23.25;56.83;100826.38;4992570;28;6975;-77
2022/07/23 06:29:05;;;;;;;;;;;;;;;23.21;57.14;100826.34;4996732;28;6863;-77
2022/07/23 06:31:31;;;;;;;;;;;;;;;23.20;57.04;100829.84;4993233;28;7068;-77
2022/07/23 06:33:57;;;;;;;;;;;;;;;23.19;57.58;100828.09;5005483;28;6987;-77
2022/07/23 06:36:22;;;;;;;;;;;;;;;23.21;57.26;100831.59;4992330;28;6772;-77
2022/07/23 06:38:48;;;;;;;;;;;;;;;23.25;57.22;100830.72;5008868;28;6975;-77
2022/07/23 06:41:13;;;;;;;;;;;;;;;23.28;57.78;100830.75;5021633;28;7322;-77
2022/07/23 06:43:39;;;;;;;;;;;;;;;23.32;57.08;100827.28;4983494;28;6978;-77
2022/07/23 06:46:05;;;;;;;;;;;;;;;23.33;57.33;100830.78;4990469;28;6779;-77
2022/07/23 06:48:30;;;;;;;;;;;;;;;23.34;56.96;100835.13;4988229;28;6840;-77
2022/07/23 06:50:56;;;;;;;;;;;;;;;23.35;57.13;100836.88;4989954;28;6772;-77
2022/07/23 06:53:21;;;;;;;;;;;;;;;23.33;57.14;100836.00;4995712;28;6929;-77
2022/07/23 06:55:47;;;;;;;;;;;;;;;23.31;57.27;100838.59;4989110;28;6775;-77
2022/07/23 06:58:13;;;;;;;;;;;;;;;23.29;56.88;100840.34;4994130;28;6780;-77
2022/07/23 07:00:40;;;;;;;;;;;;;;;23.30;57.04;100847.31;4990624;28;7087;-77
2022/07/23 07:03:05;;;;;;;;;;;;;;;23.32;57.52;100848.19;5023491;28;6859;-77
2022/07/23 07:05:32;;;;;;;;;;;;;;;23.35;56.79;100847.34;5008739;28;6870;-78
2022/07/23 07:07:58;;;;;;;;;;;;;;;23.37;57.06;100849.09;5001746;28;6784;-77
2022/07/23 07:10:24;;;;;;;;;;;;;;;23.42;57.18;100852.56;4990089;28;7689;-78
2022/07/23 07:12:49;;;;;;;;;;;;;;;23.57;57.48;100848.25;5009370;28;7024;-77
2022/07/23 07:15:15;;;;;;;;;;;;;;;23.77;57.00;100853.47;4992581;28;6975;-78
2022/07/23 07:17:42;;;;;;;;;;;;;;;24.01;57.35;100854.38;4973954;28;6936;-77
2022/07/23 07:20:08;;;;;;;;;;;;;;;24.29;56.75;100850.88;4994386;28;6924;-77
2022/07/23 07:22:34;;;;;;;;;;;;;;;24.53;55.94;100855.16;4990066;28;7282;-77
2022/07/23 07:25:00;;;;;;;;;;;;;;;24.75;55.82;100850.75;4995889;28;7448;-77
2022/07/23 07:27:25;;;;;;;;;;;;;;;24.93;54.65;100851.59;5008923;28;6981;-77
2022/07/23 07:29:51;;;;;;;;;;;;;;;25.08;54.40;100850.63;4992609;28;6800;-77
2022/07/23 07:32:17;;;;;;;;;;;;;;;25.29;54.68;100857.47;4991387;28;6831;-77
2022/07/23 07:34:42;;;;;;;;;;;;;;;25.51;54.13;100857.41;5008819;28;7333;-77
2022/07/23 07:37:08;;;;;;;;;;;;;;;25.64;53.12;100856.41;5022014;28;6959;-77
2022/07/23 07:39:34;;;;;;;;;;;;;;;25.70;52.60;100852.88;5020322;28;6952;-77
2022/07/23 07:41:59;;;;;;;;;;;;;;;25.79;52.44;100851.94;4988900;28;8124;-77
2022/07/23 07:44:25;;;;;;;;;;;;;;;25.96;53.03;100859.66;4997369;28;6944;-76
2022/07/23 07:46:51;;;;;;;;;;;;;;;26.17;52.67;100855.97;4993947;28;7726;-76
2022/07/23 07:49:19;;;;;;;;;;;;;;;26.40;52.00;100851.38;4995915;28;6930;-76
2022/07/23 07:51:45;;;;;;;;;;;;;;;26.56;51.24;100857.38;4996859;28;7245;-77
2022/07/23 07:54:13;;;;;;;;;;;;;;;26.67;50.55;100858.09;5030323;28;6862;-76
2022/07/23 07:56:39;;;;;;;;;;;;;;;26.81;50.54;100851.81;5015989;28;7274;-76
2022/07/23 07:59:05;;;;;;;;;;;;;;;27.00;50.41;100861.22;4993592;28;6840;-76
2022/07/23 08:01:31;;;;;;;;;;;;;;;27.24;50.24;100864.41;4992802;28;7232;-77
2022/07/23 08:03:57;;;;;;;;;;;;;;;27.41;49.19;100860.66;4997591;28;6788;-77
2022/07/23 08:06:23;;;;;;;;;;;;;;;27.41;48.29;100865.91;5001295;28;7959;-76
2022/07/23 08:08:48;;;;;;;;;;;;;;;27.33;47.96;100871.31;4999923;28;6968;-76
2022/07/23 08:11:14;;;;;;;;;;;;;;;27.35;48.36;100866.88;4998525;28;7175;-76
2022/07/23 08:13:40;;;;;;;;;;;;;;;27.43;47.21;100886.06;4989827;28;6841;-76
2022/07/23 08:16:07;;;;;;;;;;;;;;;27.55;47.60;100878.91;4998494;28;7800;-76
2022/07/23 08:18:32;;;;;;;;;;;;;;;27.71;47.68;100882.16;4995933;28;7046;-77
2022/07/23 08:20:58;;;;;;;;;;;;;;;27.86;46.90;100878.41;4995751;28;6910;-76
2022/07/23 08:23:24;;;;;;;;;;;;;;;27.97;45.68;100876.47;4993127;28;7390;-76
2022/07/23 08:25:50;;;;;;;;;;;;;;;28.08;44.97;100878.06;4991985;28;7353;-76
2022/07/23 08:28:15;;;;;;;;;;;;;;;28.26;44.71;100877.75;5000420;28;6795;-77
2022/07/23 08:30:44;;;;;;;;;;;;;;;28.46;44.72;100878.28;5009013;28;6870;-77
2022/07/23 08:33:15;;;;;;;;;;;;;;;28.67;44.57;100875.19;5033224;28;7095;-76
2022/07/23 08:35:49;;;;;;;;;;;;;;;28.89;43.03;100868.66;5024977;28;6974;-76
2022/07/23 08:38:18;;;;;;;;;;;;;;;29.19;43.03;100880.31;4996842;28;7173;-77
2022/07/23 08:40:47;;;;;;;;;;;;;;;29.45;42.31;100876.22;5013300;28;7364;-77
2022/07/23 08:43:22;;;;;;;;;;;;;;;29.69;41.58;100887.13;5026790;28;7270;-78
2022/07/23 08:45:56;;;;;;;;;;;;;;;30.08;41.21;100886.16;4999526;28;7030;-77
2022/07/23 08:48:29;;;;;;;;;;;;;;;30.54;40.45;100878.78;4999249;28;6988;-77
2022/07/23 08:50:58;;;;;;;;;;;;;;;31.04;39.66;100880.03;5016826;28;7133;-77
2022/07/23 08:53:26;;;;;;;;;;;;;;;31.48;37.67;100876.06;5009565;28;7248;-77
2022/07/23 08:55:56;;;;;;;;;;;;;;;31.79;37.66;100889.16;5024820;28;7023;-77
2022/07/23 08:58:23;;;;;;;;;;;;;;;32.01;37.27;100888.44;5027475;28;7506;-77
2022/07/23 09:00:49;;;;;;;;;;;;;;;32.24;36.62;100887.66;4994344;28;6828;-77
2022/07/23 09:03:19;;;;;;;;;;;;;;;32.43;35.92;100887.03;5010862;28;7248;-77
2022/07/23 09:05:45;;;;;;;;;;;;;;;32.61;35.58;100888.16;4993210;28;7486;-77
2022/07/23 09:08:16;;;;;;;;;;;;;;;32.93;35.21;100880.78;4993540;28;7235;-77
2022/07/23 09:10:59;;;;;;;;;;;;;;;33.30;34.23;100890.91;4997017;28;7103;-77
2022/07/23 09:13:45;;;;;;;;;;;;;;;33.54;33.42;100880.22;4999706;28;6820;-77
2022/07/23 09:16:24;;;;;;;;;;;;;;;33.80;32.55;100887.97;4993403;28;7132;-77
2022/07/23 09:18:54;;;;;;;;;;;;;;;34.01;32.15;100895.16;5023429;28;7049;-77
2022/07/23 09:21:32;;;;;;;;;;;;;;;34.24;32.06;100890.59;4996473;28;7828;-78
2022/07/23 09:24:03;;;;;;;;;;;;;;;34.66;31.83;100881.66;4998361;28;6808;-78
2022/07/23 09:26:38;;;;;;;;;;;;;;;34.96;31.50;100877.63;4998942;28;6812;-78
2022/07/23 09:29:29;;;;;;;;;;;;;;;35.38;31.39;100884.50;4996744;28;7226;-77
2022/07/23 09:32:00;;;;;;;;;;;;;;;35.72;31.40;100882.00;5024468;28;7200;-78
2022/07/23 09:34:33;;;;;;;;;;;;;;;36.11;31.57;100872.91;5014279;28;7193;-78
2022/07/23 09:37:15;;;;;;;;;;;;;;;36.54;29.84;100877.75;5011973;28;7390;-78
2022/07/23 09:39:44;;;;;;;;;;;;;;;36.88;29.28;100871.53;5030025;28;7285;-78
2022/07/23 09:42:17;;;;;;;;;;;;;;;36.91;28.45;100866.00;5030394;28;6988;-78
2022/07/23 09:44:52;;;;;;;;;;;;;;;36.90;27.41;100875.84;4993937;28;6788;-79
2022/07/23 09:47:20;;;;;;;;;;;;;;;36.73;26.99;100868.75;4993329;28;6804;-78
2022/07/23 09:50:08;;;;;;;;;;;;;;;36.66;27.69;100873.59;4994838;28;6792;-77
2022/07/23 09:52:47;;;;;;;;;;;;;;;36.82;28.10;100875.41;4996782;28;6808;-76
2022/07/23 09:55:14;;;;;;;;;;;;;;;37.03;27.52;100870.66;5024842;28;6800;-77
2022/07/23 09:57:50;;;;;;;;;;;;;;;37.38;27.26;100869.63;5029652;28;6788;-77
2022/07/23 10:00:16;;;;;;;;;;;;;;;37.70;26.69;100866.91;4991498;28;7324;-77
2022/07/23 10:02:46;;;;;;;;;;;;;;;37.94;26.53;100861.00;4999564;28;6931;-77
2022/07/23 10:05:12;;;;;;;;;;;;;;;38.02;25.95;100863.28;4995071;28;6812;-77
2022/07/23 10:07:39;;;;;;;;;;;;;;;37.93;25.49;100875.34;4997722;28;6934;-78
2022/07/23 10:10:06;;;;;;;;;;;;;;;37.63;25.28;100874.44;5016520;28;7190;-77
2022/07/23 10:15:00;;;;;;;;;;;;;;;37.72;25.19;100870.34;5009708;28;6777;-78
2022/07/23 10:17:28;;;;;;;;;;;;;;;37.89;25.91;100874.66;5023810;28;6905;-77
2022/07/23 10:19:54;;;;;;;;;;;;;;;38.17;25.36;100861.47;5040539;28;7014;-77
2022/07/23 10:22:27;;;;;;;;;;;;;;;38.41;25.12;100858.19;4997142;28;7190;-77
2022/07/23 10:25:22;;;;;;;;;;;;;;;38.72;25.48;100856.28;5022460;28;6930;-77
2022/07/23 10:28:23;;;;;;;;;;;;;;;39.16;25.32;100854.34;5024499;28;7166;-78
2022/07/23 10:31:35;;;;;;;;;;;;;;;39.46;24.16;100860.50;4985155;28;7319;-77
2022/07/23 10:34:21;;;;;;;;;;;;;;;39.40;23.67;100854.53;4990529;28;6828;-78
2022/07/23 10:36:59;;;;;;;;;;;;;;;39.30;22.67;100859.66;4992271;28;7291;-78
2022/07/23 10:39:34;;;;;;;;;;;;;;;39.16;22.63;100863.25;4999399;28;7356;-79
2022/07/23 10:42:13;;;;;;;;;;;;;;;38.92;22.24;100852.31;4993657;28;6792;-80
2022/07/23 10:44:45;;;;;;;;;;;;;;;38.53;22.02;100857.44;5006869;28;7259;-78
2022/07/23 10:50:34;;;;;;;;;;;;;;;37.84;22.47;100862.53;4998375;28;6955;-78
2022/07/23 10:53:08;;;;;;;;;;;;;;;37.68;22.46;100857.25;5028107;28;6999;-79
2022/07/23 10:55:34;;;;;;;;;;;;;;;37.63;22.63;100865.53;4997072;28;7944;-78
2022/07/23 10:58:02;;;;;;;;;;;;;;;37.69;22.80;100858.97;4999009;28;7065;-78
2022/07/23 11:00:31;;;;;;;;;;;;;;;37.82;22.34;100856.41;5002573;28;6994;-79
2022/07/23 11:03:36;;;;;;;;;;;;;;;37.83;22.95;100859.00;5000575;28;6816;-79
2022/07/23 11:06:03;;;;;;;;;;;;;;;37.98;22.70;100861.69;4999896;28;7263;-79
2022/07/23 11:08:29;;;;;;;;;;;;;;;38.12;22.37;100864.41;5002928;28;8147;-78
2022/07/23 11:11:00;;;;;;;;;;;;;;;38.33;22.49;100856.84;4994275;28;6942;-78
2022/07/23 11:13:35;;;;;;;;;;;;;;;38.65;22.30;100857.66;4996886;28;7190;-79
2022/07/23 11:16:08;;;;;;;;;;;;;;;38.86;22.35;100853.56;5002538;28;7456;-78
2022/07/23 11:18:39;;;;;;;;;;;;;;;39.12;21.69;100858.22;5007781;28;7128;-78
2022/07/23 11:21:23;;;;;;;;;;;;;;;39.25;21.91;100859.09;5005004;28;6900;-78
2022/07/23 11:23:58;;;;;;;;;;;;;;;39.48;21.60;100855.88;5032755;28;7330;-78
2022/07/23 11:26:47;;;;;;;;;;;;;;;39.69;20.89;100851.72;5000958;28;6784;-79
2022/07/23 11:29:28;;;;;;;;;;;;;;;39.70;21.04;100855.28;5002415;28;6999;-79
2022/07/23 11:32:17;;;;;;;;;;;;;;;39.63;20.88;100852.16;5000731;28;7233;-78
2022/07/23 11:34:47;;;;;;;;;;;;;;;39.52;21.35;100844.00;4997762;28;7199;-78
2022/07/23 11:37:37;;;;;;;;;;;;;;;39.66;21.15;100854.63;5008041;28;7433;-78
2022/07/23 11:40:11;;;;;;;;;;;;;;;39.68;21.38;100849.16;5035434;28;6986;-78
2022/07/23 11:42:56;;;;;;;;;;;;;;;39.70;21.05;100849.91;5003886;28;8505;-80
2022/07/23 11:45:29;;;;;;;;;;;;;;;39.42;20.91;100849.97;5001151;28;6964;-79
2022/07/23 11:47:54;;;;;;;;;;;;;;;39.29;21.05;100854.41;5006461;28;7436;-80
2022/07/23 11:50:27;;;;;;;;;;;;;;;39.03;20.95;100848.97;5002592;28;7244;-80
2022/07/23 11:52:54;;;;;;;;;;;;;;;38.60;20.70;100860.63;5034902;28;6985;-79
2022/07/23 11:55:20;;;;;;;;;;;;;;;38.12;21.26;100858.19;5002018;28;6788;-79
2022/07/23 11:57:47;;;;;;;;;;;;;;;37.88;21.38;100858.72;5016064;28;7282;-79
2022/07/23 12:00:20;;;;;;;;;;;;;;;37.33;21.69;100859.22;5013279;28;8012;-79
2022/07/23 12:02:49;;;;;;;;;;;;;;;37.00;22.53;100856.63;5034671;28;11418;-79
2022/07/23 12:05:25;;;;;;;;;;;;;;;37.13;22.28;100859.47;5035769;28;7210;-80
2022/07/23 12:07:54;;;;;;;;;;;;;;;37.36;21.38;100855.47;5034927;28;6980;-79
2022/07/23 12:10:26;;;;;;;;;;;;;;;37.54;21.36;100855.38;5027748;28;7165;-79
2022/07/23 12:13:05;;;;;;;;;;;;;;;37.70;21.35;100853.53;5002563;28;7331;-80
2022/07/23 12:15:38;;;;;;;;;;;;;;;37.86;21.82;100853.47;5023395;28;7145;-79
2022/07/23 12:18:08;;;;;;;;;;;;;;;38.11;21.61;100857.34;4999315;28;7971;-79
2022/07/23 12:20:41;;;;;;;;;;;;;;;38.31;21.26;100850.75;5010818;28;6808;-80
2022/07/23 12:23:10;;;;;;;;;;;;;;;38.29;20.82;100854.47;4989170;28;6999;-80
2022/07/23 12:25:41;;;;;;;;;;;;;;;38.26;21.12;100850.19;5009031;28;7882;-80
2022/07/23 12:28:16;;;;;;;;;;;;;;;38.50;21.09;100854.13;5003726;28;6807;-79
2022/07/23 12:30:51;;;;;;;;;;;;;;;38.68;20.70;100852.09;5022845;28;6960;-79
2022/07/23 12:33:29;;;;;;;;;;;;;;;38.58;20.56;100847.31;5000813;28;7207;-79
2022/07/23 12:36:00;;;;;;;;;;;;;;;38.45;20.91;100849.88;5014826;28;9037;-79
2022/07/23 12:38:35;;;;;;;;;;;;;;;38.50;21.05;100838.06;5004457;28;6788;-79
2022/07/23 12:41:01;;;;;;;;;;;;;;;38.56;21.41;100834.97;5002452;28;7235;-79
2022/07/23 12:43:35;;;;;;;;;;;;;;;38.65;21.34;100844.25;5006782;28;7378;-79
2022/07/23 12:46:08;;;;;;;;;;;;;;;38.79;21.52;100844.22;5030521;28;6808;-79
2022/07/23 12:48:39;;;;;;;;;;;;;;;39.03;21.58;100838.25;4991279;28;6975;-79
2022/07/23 12:51:08;;;;;;;;;;;;;;;39.35;20.89;100842.41;5031390;28;6800;-80
2022/07/23 12:53:45;;;;;;;;;;;;;;;39.34;20.37;100844.25;5000700;28;7193;-80
2022/07/23 12:56:17;;;;;;;;;;;;;;;39.06;20.29;100848.75;5036937;28;7228;-79
2022/07/23 12:58:52;;;;;;;;;;;;;;;38.75;20.31;100845.38;5001545;28;7410;-80